createdAt,value
2023-05-14T00:00:08.593Z,995.49
2023-05-14T00:01:08.573Z,995.52
2023-05-14T00:02:08.630Z,995.49
2023-05-14T00:03:08.766Z,995.48
2023-05-14T00:04:29.558Z,995.48
2023-05-14T00:05:08.522Z,995.46
2023-05-14T00:06:08.514Z,995.45
2023-05-14T00:07:08.500Z,995.47
2023-05-14T00:08:08.486Z,995.46
2023-05-14T00:09:08.465Z,995.47
2023-05-14T00:10:29.450Z,995.47
2023-05-14T00:11:08.458Z,995.45
2023-05-14T00:12:08.420Z,995.48
2023-05-14T00:13:08.414Z,995.46
2023-05-14T00:14:08.409Z,995.50
2023-05-14T00:15:08.398Z,995.46
2023-05-14T00:16:29.431Z,995.48
2023-05-14T00:17:08.365Z,995.51
2023-05-14T00:18:08.461Z,995.51
2023-05-14T00:19:08.356Z,995.45
2023-05-14T00:20:08.311Z,995.45
2023-05-14T00:21:08.292Z,995.45
2023-05-14T00:22:29.302Z,995.43
2023-05-14T00:23:08.276Z,995.42
2023-05-14T00:24:08.264Z,995.44
2023-05-14T00:25:08.240Z,995.44
2023-05-14T00:26:08.216Z,995.44
2023-05-14T00:27:08.242Z,995.47
2023-05-14T00:28:29.197Z,995.43
2023-05-14T00:29:08.190Z,995.45
2023-05-14T00:30:08.159Z,995.45
2023-05-14T00:31:08.240Z,995.43
2023-05-14T00:32:08.144Z,995.44
2023-05-14T00:33:08.323Z,995.38
2023-05-14T00:34:29.120Z,995.37
2023-05-14T00:35:08.097Z,995.34
2023-05-14T00:36:08.094Z,995.32
2023-05-14T00:37:08.081Z,995.30
2023-05-14T00:38:08.065Z,995.29
2023-05-14T00:39:08.055Z,995.28
2023-05-14T00:40:29.050Z,995.24
2023-05-14T00:41:08.033Z,995.25
2023-05-14T00:42:08.012Z,995.23
2023-05-14T00:43:07.990Z,995.18
2023-05-14T00:44:07.980Z,995.21
2023-05-14T00:45:07.960Z,995.19
2023-05-14T00:46:28.996Z,995.17
2023-05-14T00:47:07.971Z,995.15
2023-05-14T00:48:07.946Z,995.15
2023-05-14T00:49:07.906Z,995.15
2023-05-14T00:50:07.883Z,995.13
2023-05-14T00:51:07.869Z,995.16
2023-05-14T00:52:28.875Z,995.09
2023-05-14T00:53:07.852Z,995.13
2023-05-14T00:54:07.836Z,995.13
2023-05-14T00:55:07.840Z,995.10
2023-05-14T00:56:07.802Z,995.11
2023-05-14T00:57:07.799Z,995.13
2023-05-14T00:58:28.813Z,995.14
2023-05-14T00:59:07.770Z,995.11
2023-05-14T01:00:07.741Z,995.10
2023-05-14T01:01:07.809Z,995.12
2023-05-14T01:02:07.740Z,995.07
2023-05-14T01:03:07.878Z,995.10
2023-05-14T01:04:28.694Z,995.11
2023-05-14T01:05:07.668Z,995.09
2023-05-14T01:06:07.680Z,995.08
2023-05-14T01:07:07.660Z,995.14
2023-05-14T01:08:07.627Z,995.10
2023-05-14T01:09:07.635Z,995.13
2023-05-14T01:10:28.613Z,995.09
2023-05-14T01:11:07.596Z,995.14
2023-05-14T01:12:07.567Z,995.17
2023-05-14T01:13:07.549Z,995.13
2023-05-14T01:14:07.548Z,995.14
2023-05-14T01:15:07.556Z,995.16
2023-05-14T01:16:28.539Z,995.14
2023-05-14T01:17:07.504Z,995.14
2023-05-14T01:18:07.504Z,995.17
2023-05-14T01:19:07.489Z,995.12
2023-05-14T01:20:07.447Z,995.11
2023-05-14T01:21:07.438Z,995.08
2023-05-14T01:22:28.429Z,995.11
2023-05-14T01:23:07.401Z,995.11
2023-05-14T01:24:07.409Z,995.10
2023-05-14T01:25:07.387Z,995.09
2023-05-14T01:26:07.375Z,995.06
2023-05-14T01:27:07.354Z,995.03
2023-05-14T01:28:28.348Z,995.06
2023-05-14T01:29:07.316Z,995.01
2023-05-14T01:30:07.302Z,995.02
2023-05-14T01:31:07.288Z,995.01
2023-05-14T01:32:07.300Z,994.99
2023-05-14T01:33:07.291Z,995.00
2023-05-14T01:34:28.271Z,995.00
2023-05-14T01:35:07.226Z,994.97
2023-05-14T01:36:07.206Z,995.01
2023-05-14T01:37:07.199Z,994.99
2023-05-14T01:38:07.173Z,994.92
2023-05-14T01:39:07.165Z,994.98
2023-05-14T01:40:28.148Z,994.98
2023-05-14T01:41:07.144Z,994.97
2023-05-14T01:42:07.116Z,994.94
2023-05-14T01:43:07.141Z,994.99
2023-05-14T01:44:07.080Z,995.00
2023-05-14T01:45:07.085Z,995.02
2023-05-14T01:46:28.126Z,995.00
2023-05-14T01:47:07.051Z,995.01
2023-05-14T01:48:07.045Z,995.00
2023-05-14T01:49:07.011Z,995.00
2023-05-14T01:50:06.994Z,994.99
2023-05-14T01:51:07.002Z,995.00
2023-05-14T01:52:27.970Z,994.97
2023-05-14T01:53:06.949Z,994.95
2023-05-14T01:54:06.935Z,995.00
2023-05-14T01:55:06.942Z,995.00
2023-05-14T01:56:06.958Z,995.02
2023-05-14T01:57:06.889Z,994.98
2023-05-14T01:58:27.884Z,994.94
2023-05-14T01:59:06.889Z,994.97
2023-05-14T02:00:06.842Z,994.96
2023-05-14T02:01:06.852Z,994.94
2023-05-14T02:02:06.811Z,994.95
2023-05-14T02:03:06.850Z,994.94
2023-05-14T02:04:27.829Z,994.93
2023-05-14T02:05:07.166Z,994.94
2023-05-14T02:06:06.750Z,994.90
2023-05-14T02:07:06.758Z,994.93
2023-05-14T02:08:06.720Z,994.89
2023-05-14T02:09:06.718Z,994.93
2023-05-14T02:10:27.704Z,994.91
2023-05-14T02:11:06.669Z,994.89
2023-05-14T02:12:06.662Z,994.97
2023-05-14T02:13:06.647Z,994.91
2023-05-14T02:14:06.634Z,994.93
2023-05-14T02:15:06.610Z,994.90
2023-05-14T02:16:27.722Z,994.87
2023-05-14T02:17:06.578Z,994.88
2023-05-14T02:18:06.594Z,994.87
2023-05-14T02:19:06.637Z,994.85
2023-05-14T02:20:06.563Z,994.85
2023-05-14T02:21:06.530Z,994.89
2023-05-14T02:22:27.520Z,994.89
2023-05-14T02:23:06.509Z,994.85
2023-05-14T02:24:06.465Z,994.85
2023-05-14T02:25:06.487Z,994.86
2023-05-14T02:26:06.437Z,994.88
2023-05-14T02:27:06.431Z,994.88
2023-05-14T02:28:27.417Z,994.88
2023-05-14T02:29:06.402Z,994.86
2023-05-14T02:30:06.382Z,994.88
2023-05-14T02:31:06.407Z,994.91
2023-05-14T02:32:06.403Z,994.90
2023-05-14T02:33:06.437Z,994.88
2023-05-14T02:34:27.316Z,994.90
2023-05-14T02:35:06.311Z,994.90
2023-05-14T02:36:06.283Z,994.88
2023-05-14T02:37:06.264Z,994.87
2023-05-14T02:38:06.260Z,994.85
2023-05-14T02:39:06.247Z,994.84
2023-05-14T02:40:27.236Z,994.85
2023-05-14T02:41:06.200Z,994.85
2023-05-14T02:42:06.188Z,994.82
2023-05-14T02:43:06.200Z,994.83
2023-05-14T02:44:06.156Z,994.85
2023-05-14T02:45:06.148Z,994.84
2023-05-14T02:46:27.173Z,994.83
2023-05-14T02:47:06.209Z,994.81
2023-05-14T02:48:06.168Z,994.78
2023-05-14T02:49:06.082Z,994.83
2023-05-14T02:50:06.066Z,994.82
2023-05-14T02:51:06.066Z,994.77
2023-05-14T02:52:27.032Z,994.82
2023-05-14T02:53:06.031Z,994.79
2023-05-14T02:54:06.006Z,994.78
2023-05-14T02:55:05.998Z,994.76
2023-05-14T02:56:05.982Z,994.78
2023-05-14T02:57:05.959Z,994.76
2023-05-14T02:58:28.226Z,994.76
2023-05-14T02:59:05.928Z,994.76
2023-05-14T03:00:05.911Z,994.81
2023-05-14T03:01:05.957Z,994.76
2023-05-14T03:02:05.966Z,994.77
2023-05-14T03:03:05.926Z,994.79
2023-05-14T03:04:26.857Z,994.80
2023-05-14T03:05:05.858Z,994.76
2023-05-14T03:06:05.809Z,994.78
2023-05-14T03:07:05.801Z,994.77
2023-05-14T03:08:05.781Z,994.77
2023-05-14T03:09:05.766Z,994.72
2023-05-14T03:10:26.813Z,994.76
2023-05-14T03:11:05.750Z,994.74
2023-05-14T03:12:05.721Z,994.77
2023-05-14T03:13:05.691Z,994.69
2023-05-14T03:14:05.684Z,994.71
2023-05-14T03:15:05.674Z,994.70
2023-05-14T03:16:26.741Z,994.74
2023-05-14T03:17:05.680Z,994.69
2023-05-14T03:18:05.666Z,994.71
2023-05-14T03:19:05.684Z,994.68
2023-05-14T03:20:05.592Z,994.69
2023-05-14T03:21:05.573Z,994.70
2023-05-14T03:22:26.562Z,994.67
2023-05-14T03:23:05.536Z,994.74
2023-05-14T03:24:05.548Z,994.71
2023-05-14T03:25:05.504Z,994.76
2023-05-14T03:26:05.493Z,994.72
2023-05-14T03:27:05.498Z,994.75
2023-05-14T03:28:26.456Z,994.76
2023-05-14T03:29:05.463Z,994.74
2023-05-14T03:30:05.426Z,994.72
2023-05-14T03:31:05.479Z,994.75
2023-05-14T03:32:05.401Z,994.75
2023-05-14T03:33:05.440Z,994.72
2023-05-14T03:34:26.363Z,994.76
2023-05-14T03:35:05.359Z,994.71
2023-05-14T03:36:05.371Z,994.76
2023-05-14T03:37:05.314Z,994.74
2023-05-14T03:38:05.312Z,994.77
2023-05-14T03:39:05.298Z,994.74
2023-05-14T03:40:26.426Z,994.82
2023-05-14T03:41:05.288Z,994.75
2023-05-14T03:42:05.224Z,994.75
2023-05-14T03:43:05.247Z,994.72
2023-05-14T03:44:05.191Z,994.74
2023-05-14T03:45:05.274Z,994.71
2023-05-14T03:46:26.158Z,994.69
2023-05-14T03:47:05.155Z,994.71
2023-05-14T03:48:05.253Z,994.68
2023-05-14T03:49:05.202Z,994.69
2023-05-14T03:50:05.119Z,994.72
2023-05-14T03:51:05.106Z,994.72
2023-05-14T03:52:26.092Z,994.73
2023-05-14T03:53:05.058Z,994.72
2023-05-14T03:54:06.894Z,994.69
2023-05-14T03:55:05.032Z,994.72
2023-05-14T03:56:05.019Z,994.74
2023-05-14T03:57:05.017Z,994.70
2023-05-14T03:58:25.999Z,994.77
2023-05-14T03:59:05.016Z,994.76
2023-05-14T04:00:04.954Z,994.74
2023-05-14T04:01:04.937Z,994.72
2023-05-14T04:02:04.922Z,994.72
2023-05-14T04:03:04.931Z,994.71
2023-05-14T04:04:26.000Z,994.69
2023-05-14T04:05:04.877Z,994.74
2023-05-14T04:06:04.860Z,994.73
2023-05-14T04:07:04.848Z,994.75
2023-05-14T04:08:04.822Z,994.72
2023-05-14T04:09:04.820Z,994.75
2023-05-14T04:10:25.965Z,994.76
2023-05-14T04:11:04.785Z,994.76
2023-05-14T04:12:04.752Z,994.77
2023-05-14T04:13:04.753Z,994.79
2023-05-14T04:14:04.708Z,994.75
2023-05-14T04:15:04.697Z,994.77
2023-05-14T04:16:25.750Z,994.77
2023-05-14T04:17:04.681Z,994.78
2023-05-14T04:18:04.674Z,994.79
2023-05-14T04:19:04.717Z,994.80
2023-05-14T04:20:04.613Z,994.75
2023-05-14T04:21:04.602Z,994.77
2023-05-14T04:22:25.603Z,994.79
2023-05-14T04:23:04.566Z,994.76
2023-05-14T04:24:04.592Z,994.77
2023-05-14T04:25:04.664Z,994.79
2023-05-14T04:26:04.516Z,994.80
2023-05-14T04:27:04.507Z,994.77
2023-05-14T04:28:25.498Z,994.82
2023-05-14T04:29:04.503Z,994.80
2023-05-14T04:30:04.459Z,994.76
2023-05-14T04:31:04.441Z,994.80
2023-05-14T04:32:04.463Z,994.78
2023-05-14T04:33:04.479Z,994.78
2023-05-14T04:34:25.402Z,994.79
2023-05-14T04:35:04.376Z,994.78
2023-05-14T04:36:04.378Z,994.79
2023-05-14T04:37:04.342Z,994.76
2023-05-14T04:38:04.321Z,994.76
2023-05-14T04:39:04.330Z,994.78
2023-05-14T04:40:25.577Z,994.78
2023-05-14T04:41:04.289Z,994.77
2023-05-14T04:42:04.268Z,994.74
2023-05-14T04:43:04.243Z,994.73
2023-05-14T04:44:04.250Z,994.70
2023-05-14T04:45:04.212Z,994.75
2023-05-14T04:46:25.330Z,994.69
2023-05-14T04:47:04.179Z,994.73
2023-05-14T04:48:04.223Z,994.73
2023-05-14T04:49:04.166Z,994.73
2023-05-14T04:50:04.158Z,994.73
2023-05-14T04:51:06.359Z,994.73
2023-05-14T04:52:25.181Z,994.69
2023-05-14T04:53:04.098Z,994.70
2023-05-14T04:54:04.112Z,994.74
2023-05-14T04:55:04.167Z,994.74
2023-05-14T04:56:04.055Z,994.76
2023-05-14T04:57:04.095Z,994.78
2023-05-14T04:58:25.072Z,994.76
2023-05-14T04:59:04.000Z,994.75
2023-05-14T05:00:04.012Z,994.86
2023-05-14T05:01:04.063Z,994.77
2023-05-14T05:02:03.965Z,994.82
2023-05-14T05:03:04.046Z,994.84
2023-05-14T05:04:24.983Z,994.81
2023-05-14T05:05:03.973Z,994.83
2023-05-14T05:06:03.917Z,994.82
2023-05-14T05:07:03.934Z,994.86
2023-05-14T05:08:03.926Z,994.86
2023-05-14T05:09:03.853Z,994.85
2023-05-14T05:10:25.096Z,994.86
2023-05-14T05:11:03.826Z,994.81
2023-05-14T05:12:03.812Z,994.82
2023-05-14T05:13:03.793Z,994.81
2023-05-14T05:14:03.793Z,994.86
2023-05-14T05:15:03.762Z,994.88
2023-05-14T05:16:24.791Z,994.83
2023-05-14T05:17:04.274Z,994.85
2023-05-14T05:18:03.835Z,994.84
2023-05-14T05:19:03.764Z,994.85
2023-05-14T05:20:03.727Z,994.86
2023-05-14T05:21:03.694Z,994.86
2023-05-14T05:22:24.679Z,994.87
2023-05-14T05:23:03.642Z,994.86
2023-05-14T05:24:03.650Z,994.85
2023-05-14T05:25:03.618Z,994.88
2023-05-14T05:26:03.614Z,994.91
2023-05-14T05:27:03.611Z,994.89
2023-05-14T05:28:24.615Z,994.93
2023-05-14T05:29:03.590Z,994.94
2023-05-14T05:30:03.557Z,994.92
2023-05-14T05:31:03.551Z,994.91
2023-05-14T05:32:03.513Z,994.94
2023-05-14T05:33:03.545Z,994.93
2023-05-14T05:34:24.494Z,994.92
2023-05-14T05:35:03.465Z,994.93
2023-05-14T05:36:03.454Z,994.90
2023-05-14T05:37:03.504Z,994.91
2023-05-14T05:38:03.424Z,994.93
2023-05-14T05:39:03.397Z,994.96
2023-05-14T05:40:24.624Z,995.00
2023-05-14T05:41:03.383Z,995.00
2023-05-14T05:42:03.361Z,995.01
2023-05-14T05:43:03.345Z,995.02
2023-05-14T05:44:03.336Z,995.00
2023-05-14T05:45:03.369Z,995.01
2023-05-14T05:46:24.346Z,995.01
2023-05-14T05:47:03.339Z,995.02
2023-05-14T05:48:03.301Z,995.02
2023-05-14T05:49:03.262Z,995.07
2023-05-14T05:50:03.247Z,995.01
2023-05-14T05:51:03.329Z,995.01
2023-05-14T05:52:24.244Z,995.00
2023-05-14T05:53:03.211Z,995.02
2023-05-14T05:54:03.194Z,995.01
2023-05-14T05:55:03.184Z,995.02
2023-05-14T05:56:03.155Z,995.01
2023-05-14T05:57:03.152Z,995.02
2023-05-14T05:58:24.141Z,995.01
2023-05-14T05:59:03.131Z,994.96
2023-05-14T06:00:03.228Z,995.00
2023-05-14T06:01:03.094Z,994.99
2023-05-14T06:02:03.103Z,995.00
2023-05-14T06:03:03.116Z,995.02
2023-05-14T06:04:24.059Z,994.98
2023-05-14T06:05:03.075Z,994.97
2023-05-14T06:06:03.040Z,994.97
2023-05-14T06:07:03.133Z,995.00
2023-05-14T06:08:03.021Z,994.96
2023-05-14T06:09:03.013Z,994.97
2023-05-14T06:10:24.150Z,994.95
2023-05-14T06:11:02.960Z,994.94
2023-05-14T06:12:02.960Z,995.01
2023-05-14T06:13:02.925Z,994.97
2023-05-14T06:14:02.913Z,994.96
2023-05-14T06:15:02.935Z,995.00
2023-05-14T06:16:23.944Z,995.02
2023-05-14T06:17:02.896Z,995.02
2023-05-14T06:18:02.876Z,995.02
2023-05-14T06:19:02.905Z,995.02
2023-05-14T06:20:02.841Z,995.06
2023-05-14T06:21:02.806Z,995.00
2023-05-14T06:22:23.805Z,995.01
2023-05-14T06:23:02.797Z,995.04
2023-05-14T06:24:02.765Z,995.07
2023-05-14T06:25:02.759Z,995.06
2023-05-14T06:26:02.751Z,995.01
2023-05-14T06:27:02.783Z,994.98
2023-05-14T06:28:23.725Z,995.01
2023-05-14T06:29:02.692Z,995.00
2023-05-14T06:30:02.694Z,994.99
2023-05-14T06:31:02.674Z,994.99
2023-05-14T06:32:02.692Z,995.00
2023-05-14T06:33:02.735Z,995.02
2023-05-14T06:34:23.656Z,995.03
2023-05-14T06:35:02.626Z,995.03
2023-05-14T06:36:02.618Z,994.97
2023-05-14T06:37:02.599Z,994.96
2023-05-14T06:38:02.579Z,994.99
2023-05-14T06:39:02.568Z,994.98
2023-05-14T06:40:23.928Z,994.97
2023-05-14T06:41:02.543Z,995.00
2023-05-14T06:42:02.542Z,994.99
2023-05-14T06:43:02.513Z,995.01
2023-05-14T06:44:02.500Z,994.97
2023-05-14T06:45:02.487Z,994.98
2023-05-14T06:46:23.494Z,995.00
2023-05-14T06:47:02.501Z,994.99
2023-05-14T06:48:02.527Z,994.99
2023-05-14T06:49:02.466Z,995.00
2023-05-14T06:50:02.439Z,994.99
2023-05-14T06:51:02.423Z,994.99
2023-05-14T06:52:23.427Z,994.98
2023-05-14T06:53:02.384Z,994.98
2023-05-14T06:54:02.380Z,994.98
2023-05-14T06:55:02.366Z,994.94
2023-05-14T06:56:02.354Z,994.95
2023-05-14T06:57:02.340Z,994.94
2023-05-14T06:58:23.324Z,994.95
2023-05-14T06:59:02.389Z,994.94
2023-05-14T07:00:03.772Z,994.96
2023-05-14T07:01:02.326Z,994.91
2023-05-14T07:02:02.279Z,994.89
2023-05-14T07:03:02.358Z,994.95
2023-05-14T07:04:23.314Z,994.94
2023-05-14T07:05:02.228Z,994.90
2023-05-14T07:06:02.224Z,994.91
2023-05-14T07:07:02.210Z,994.89
2023-05-14T07:08:02.213Z,994.92
2023-05-14T07:09:02.218Z,994.89
2023-05-14T07:10:23.325Z,994.89
2023-05-14T07:11:02.187Z,994.89
2023-05-14T07:12:02.147Z,994.85
2023-05-14T07:13:02.139Z,994.91
2023-05-14T07:14:02.140Z,994.86
2023-05-14T07:15:02.110Z,994.82
2023-05-14T07:16:23.116Z,994.85
2023-05-14T07:17:02.146Z,994.85
2023-05-14T07:18:02.142Z,994.84
2023-05-14T07:19:02.136Z,994.87
2023-05-14T07:20:02.087Z,994.87
2023-05-14T07:21:02.049Z,994.90
2023-05-14T07:22:23.039Z,994.87
2023-05-14T07:23:02.020Z,994.87
2023-05-14T07:24:02.040Z,994.88
2023-05-14T07:25:02.000Z,994.88
2023-05-14T07:26:01.998Z,994.83
2023-05-14T07:27:01.983Z,994.80
2023-05-14T07:28:23.039Z,994.81
2023-05-14T07:29:01.959Z,994.79
2023-05-14T07:30:02.008Z,994.83
2023-05-14T07:31:01.990Z,994.82
2023-05-14T07:32:01.936Z,994.81
2023-05-14T07:33:01.972Z,994.81
2023-05-14T07:34:22.999Z,994.83
2023-05-14T07:35:01.891Z,994.79
2023-05-14T07:36:01.938Z,994.76
2023-05-14T07:37:01.924Z,994.75
2023-05-14T07:38:01.913Z,994.72
2023-05-14T07:39:01.906Z,994.74
2023-05-14T07:40:23.089Z,994.75
2023-05-14T07:41:01.850Z,994.71
2023-05-14T07:42:01.910Z,994.70
2023-05-14T07:43:01.900Z,994.69
2023-05-14T07:44:01.899Z,994.73
2023-05-14T07:45:01.804Z,994.75
2023-05-14T07:46:22.819Z,994.73
2023-05-14T07:47:01.808Z,994.72
2023-05-14T07:48:01.891Z,994.70
2023-05-14T07:49:01.783Z,994.72
2023-05-14T07:50:01.767Z,994.72
2023-05-14T07:51:01.774Z,994.74
2023-05-14T07:52:22.754Z,994.73
2023-05-14T07:53:01.777Z,994.72
2023-05-14T07:54:01.747Z,994.70
2023-05-14T07:55:01.738Z,994.72
2023-05-14T07:56:01.726Z,994.73
2023-05-14T07:57:01.716Z,994.70
2023-05-14T07:58:22.731Z,994.69
2023-05-14T07:59:01.764Z,994.69
2023-05-14T08:00:01.698Z,994.69
2023-05-14T08:01:01.701Z,994.65
2023-05-14T08:02:01.744Z,994.67
2023-05-14T08:03:01.816Z,994.62
2023-05-14T08:04:22.734Z,994.63
2023-05-14T08:05:01.682Z,994.63
2023-05-14T08:06:01.683Z,994.61
2023-05-14T08:07:01.684Z,994.66
2023-05-14T08:08:01.669Z,994.65
2023-05-14T08:09:01.661Z,994.70
2023-05-14T08:10:23.002Z,994.71
2023-05-14T08:11:01.675Z,994.71
2023-05-14T08:12:01.668Z,994.68
2023-05-14T08:13:01.644Z,994.72
2023-05-14T08:14:01.653Z,994.72
2023-05-14T08:15:01.638Z,994.68
2023-05-14T08:16:22.678Z,994.69
2023-05-14T08:17:01.665Z,994.70
2023-05-14T08:18:01.703Z,994.67
2023-05-14T08:19:01.673Z,994.66
2023-05-14T08:20:01.654Z,994.65
2023-05-14T08:21:03.353Z,994.58
2023-05-14T08:22:22.664Z,994.64
2023-05-14T08:23:01.625Z,994.61
2023-05-14T08:24:01.646Z,994.59
2023-05-14T08:25:01.620Z,994.57
2023-05-14T08:26:01.626Z,994.58
2023-05-14T08:27:01.627Z,994.50
2023-05-14T08:29:38.390Z,994.60
2023-05-14T08:30:38.473Z,994.60
2023-05-14T08:32:46.300Z,994.54
2023-05-14T08:33:46.256Z,994.55
2023-05-14T08:35:51.827Z,994.49
2023-05-14T08:36:51.809Z,994.45
2023-05-14T08:38:57.565Z,994.44
2023-05-14T08:39:57.533Z,994.44
2023-05-14T08:42:02.461Z,994.51
2023-05-14T08:43:02.446Z,994.47
2023-05-14T08:45:07.339Z,994.48
2023-05-14T08:46:07.325Z,994.44
2023-05-14T08:48:12.358Z,994.44
2023-05-14T08:49:12.326Z,994.44
2023-05-14T08:51:17.237Z,994.43
2023-05-14T08:52:17.206Z,994.40
2023-05-14T08:54:22.937Z,994.44
2023-05-14T08:55:22.928Z,994.43
2023-05-14T08:57:28.669Z,994.40
2023-05-14T08:58:28.656Z,994.40
2023-05-14T09:00:34.417Z,994.37
2023-05-14T09:01:34.404Z,994.36
2023-05-14T09:03:40.370Z,994.35
2023-05-14T09:04:40.120Z,994.30
2023-05-14T09:06:49.510Z,994.33
2023-05-14T09:07:49.488Z,994.33
2023-05-14T09:09:55.232Z,994.33
2023-05-14T09:10:55.193Z,994.33
2023-05-14T09:13:00.947Z,994.24
2023-05-14T09:14:00.934Z,994.23
2023-05-14T09:16:06.696Z,994.18
2023-05-14T09:17:06.639Z,994.20
2023-05-14T09:18:06.802Z,994.16
2023-05-14T09:19:06.733Z,994.16
2023-05-14T09:20:06.635Z,994.15
2023-05-14T09:21:06.647Z,994.17
2023-05-14T09:22:06.669Z,994.16
2023-05-14T09:23:06.632Z,994.15
2023-05-14T09:24:06.646Z,994.09
2023-05-14T09:25:06.701Z,994.11
2023-05-14T09:26:06.637Z,994.13
2023-05-14T09:27:06.639Z,994.05
2023-05-14T09:28:06.630Z,994.08
2023-05-14T09:29:06.625Z,994.09
2023-05-14T09:30:06.621Z,994.09
2023-05-14T09:31:06.687Z,994.13
2023-05-14T09:32:06.655Z,994.07
2023-05-14T09:33:06.677Z,994.04
2023-05-14T09:34:06.607Z,994.07
2023-05-14T09:35:06.606Z,994.08
2023-05-14T09:36:06.603Z,994.03
2023-05-14T09:37:06.594Z,994.06
2023-05-14T09:38:06.597Z,994.02
2023-05-14T09:39:06.590Z,994.00
2023-05-14T09:40:06.598Z,994.01
2023-05-14T09:41:06.579Z,994.00
2023-05-14T09:42:06.582Z,994.02
2023-05-14T09:43:06.574Z,994.04
2023-05-14T09:44:06.794Z,994.04
2023-05-14T09:45:06.581Z,994.01
2023-05-14T09:46:06.560Z,994.01
2023-05-14T09:47:06.575Z,994.03
2023-05-14T09:48:06.764Z,993.98
2023-05-14T09:49:06.544Z,994.00
2023-05-14T09:50:06.534Z,993.96
2023-05-14T09:51:06.542Z,993.97
2023-05-14T09:52:06.530Z,993.96
2023-05-14T09:53:06.524Z,993.97
2023-05-14T09:54:06.518Z,993.89
2023-05-14T09:55:06.578Z,993.96
2023-05-14T09:56:06.539Z,993.95
2023-05-14T09:57:06.499Z,993.95
2023-05-14T09:58:06.493Z,993.90
2023-05-14T09:59:06.482Z,993.91
2023-05-14T10:00:06.481Z,993.90
2023-05-14T10:01:06.497Z,993.88
2023-05-14T10:02:06.463Z,993.89
2023-05-14T10:03:06.520Z,993.91
2023-05-14T10:04:06.463Z,993.91
2023-05-14T10:05:06.483Z,993.90
2023-05-14T10:06:06.444Z,993.89
2023-05-14T10:07:06.431Z,993.91
2023-05-14T10:08:06.426Z,993.90
2023-05-14T10:09:06.414Z,993.91
2023-05-14T10:10:06.406Z,993.87
2023-05-14T10:11:06.404Z,993.93
2023-05-14T10:12:06.395Z,993.88
2023-05-14T10:13:06.389Z,993.86
2023-05-14T10:14:06.381Z,993.88
2023-05-14T10:15:06.373Z,993.87
2023-05-14T10:16:06.366Z,993.88
2023-05-14T10:17:06.439Z,993.88
2023-05-14T10:18:06.381Z,993.87
2023-05-14T10:19:06.413Z,993.88
2023-05-14T10:20:06.342Z,993.86
2023-05-14T10:21:06.342Z,993.87
2023-05-14T10:22:06.317Z,993.90
2023-05-14T10:23:06.309Z,993.89
2023-05-14T10:24:06.300Z,993.88
2023-05-14T10:25:06.294Z,993.85
2023-05-14T10:26:06.282Z,993.90
2023-05-14T10:27:06.281Z,993.89
2023-05-14T10:28:06.296Z,993.91
2023-05-14T10:29:06.274Z,993.90
2023-05-14T10:30:06.259Z,993.86
2023-05-14T10:31:06.256Z,993.87
2023-05-14T10:32:06.271Z,993.92
2023-05-14T10:33:06.275Z,993.89
2023-05-14T10:34:06.221Z,993.87
2023-05-14T10:35:06.212Z,993.87
2023-05-14T10:36:06.207Z,993.87
2023-05-14T10:37:06.196Z,993.89
2023-05-14T10:38:06.183Z,993.85
2023-05-14T10:39:06.172Z,993.87
2023-05-14T10:40:06.221Z,993.89
2023-05-14T10:41:06.161Z,993.84
2023-05-14T10:42:06.148Z,993.89
2023-05-14T10:43:06.139Z,993.91
2023-05-14T10:44:06.132Z,993.87
2023-05-14T10:45:06.125Z,993.89
2023-05-14T10:46:06.146Z,993.89
2023-05-14T10:47:06.180Z,993.89
2023-05-14T10:48:06.127Z,993.89
2023-05-14T10:49:06.084Z,993.90
2023-05-14T10:50:06.137Z,993.90
2023-05-14T10:51:06.174Z,993.96
2023-05-14T10:52:06.078Z,993.87
2023-05-14T10:53:06.056Z,993.92
2023-05-14T10:54:06.038Z,993.89
2023-05-14T10:55:06.050Z,993.87
2023-05-14T10:56:06.018Z,993.85
2023-05-14T10:57:06.012Z,993.87
2023-05-14T10:58:06.005Z,993.87
2023-05-14T10:59:06.010Z,993.84
2023-05-14T11:00:05.983Z,993.88
2023-05-14T11:01:05.977Z,993.83
2023-05-14T11:02:06.013Z,993.82
2023-05-14T11:03:05.999Z,993.82
2023-05-14T11:04:05.995Z,993.85
2023-05-14T11:05:05.941Z,993.84
2023-05-14T11:06:05.929Z,993.80
2023-05-14T11:07:05.922Z,993.82
2023-05-14T11:08:05.920Z,993.82
2023-05-14T11:09:05.902Z,993.80
2023-05-14T11:10:05.892Z,993.79
2023-05-14T11:11:05.894Z,993.79
2023-05-14T11:12:05.871Z,993.81
2023-05-14T11:13:05.864Z,993.76
2023-05-14T11:14:06.410Z,993.80
2023-05-14T11:15:05.856Z,993.82
2023-05-14T11:16:21.181Z,993.77
2023-05-14T11:17:05.859Z,993.75
2023-05-14T11:18:05.852Z,993.77
2023-05-14T11:19:05.831Z,993.78
2023-05-14T11:20:05.810Z,993.76
2023-05-14T11:21:05.813Z,993.73
2023-05-14T11:22:05.774Z,993.74
2023-05-14T11:23:05.769Z,993.74
2023-05-14T11:24:05.756Z,993.73
2023-05-14T11:25:05.745Z,993.76
2023-05-14T11:26:05.804Z,993.72
2023-05-14T11:27:05.742Z,993.69
2023-05-14T11:28:05.713Z,993.69
2023-05-14T11:29:05.708Z,993.68
2023-05-14T11:30:05.695Z,993.69
2023-05-14T11:31:05.719Z,993.69
2023-05-14T11:32:05.821Z,993.67
2023-05-14T11:33:05.728Z,993.67
2023-05-14T11:34:05.663Z,993.68
2023-05-14T11:35:05.650Z,993.70
2023-05-14T11:36:05.648Z,993.73
2023-05-14T11:37:05.649Z,993.67
2023-05-14T11:38:06.858Z,993.66
2023-05-14T11:39:05.608Z,993.66
2023-05-14T11:40:05.715Z,993.66
2023-05-14T11:41:05.590Z,993.70
2023-05-14T11:42:05.580Z,993.68
2023-05-14T11:43:05.572Z,993.73
2023-05-14T11:44:07.262Z,993.71
2023-05-14T11:45:05.550Z,993.67
2023-05-14T11:46:05.592Z,993.68
2023-05-14T11:47:05.539Z,993.66
2023-05-14T11:48:05.609Z,993.63
2023-05-14T11:49:05.515Z,993.62
2023-05-14T11:50:06.761Z,993.62
2023-05-14T11:51:05.493Z,993.64
2023-05-14T11:52:05.486Z,993.59
2023-05-14T11:53:05.476Z,993.61
2023-05-14T11:54:05.466Z,993.68
2023-05-14T11:55:05.457Z,993.61
2023-05-14T11:56:07.157Z,993.63
2023-05-14T11:57:05.433Z,993.59
2023-05-14T11:58:05.426Z,993.60
2023-05-14T11:59:05.427Z,993.60
2023-05-14T12:00:05.410Z,993.57
2023-05-14T12:01:05.393Z,993.59
2023-05-14T12:02:05.436Z,993.55
2023-05-14T12:03:05.481Z,993.55
2023-05-14T12:04:05.533Z,993.51
2023-05-14T12:05:05.368Z,993.54
2023-05-14T12:06:05.372Z,993.53
2023-05-14T12:07:05.342Z,993.55
2023-05-14T12:08:05.332Z,993.51
2023-05-14T12:09:05.338Z,993.50
2023-05-14T12:10:05.321Z,993.48
2023-05-14T12:11:05.309Z,993.49
2023-05-14T12:12:05.294Z,993.47
2023-05-14T12:13:05.284Z,993.48
2023-05-14T12:14:05.277Z,993.45
2023-05-14T12:15:05.263Z,993.46
2023-05-14T12:16:05.314Z,993.47
2023-05-14T12:17:05.244Z,993.43
2023-05-14T12:18:13.614Z,993.41
2023-05-14T12:19:05.267Z,993.39
2023-05-14T12:20:05.246Z,993.35
2023-05-14T12:21:05.205Z,993.35
2023-05-14T12:22:05.225Z,993.34
2023-05-14T12:23:05.196Z,993.34
2023-05-14T12:24:05.190Z,993.32
2023-05-14T12:25:05.181Z,993.29
2023-05-14T12:26:05.185Z,993.30
2023-05-14T12:27:05.165Z,993.27
2023-05-14T12:28:05.172Z,993.30
2023-05-14T12:29:05.146Z,993.30
2023-05-14T12:30:19.092Z,993.29
2023-05-14T12:31:05.156Z,993.27
2023-05-14T12:32:05.144Z,993.27
2023-05-14T12:33:05.226Z,993.26
2023-05-14T12:34:05.101Z,993.25
2023-05-14T12:35:05.092Z,993.23
2023-05-14T12:36:20.459Z,993.23
2023-05-14T12:37:05.070Z,993.21
2023-05-14T12:38:05.079Z,993.26
2023-05-14T12:39:05.061Z,993.22
2023-05-14T12:40:05.056Z,993.21
2023-05-14T12:41:05.059Z,993.18
2023-05-14T12:42:05.037Z,993.21
2023-05-14T12:43:05.038Z,993.17
2023-05-14T12:44:05.244Z,993.19
2023-05-14T12:45:05.082Z,993.18
2023-05-14T12:46:05.054Z,993.20